Time;durP1;ratioP1;P1;durP2;ratioP2;P2;SDS_P1;SDS_P2;PMS_P1;PMS_P2;Temp;Humidity;BMP_temperature;BMP_pressure;BME280_temperature;BME280_humidity;BME280_pressure;Samples;Min_cycle;Max_cycle;Signal;HPM_P1;HPM_P2
2023/03/28 00:00:18;;;;;;;;;;;;;;;1.69;65.70;93177.44;2052443;70;20425;-76
2023/03/28 00:02:45;;;;;;;;;;;;;;;1.88;65.41;93185.56;2051777;70;20058;-75
2023/03/28 00:05:10;;;;;;;;;;;;;;;2.07;64.29;93181.81;2064830;69;20585;-76
2023/03/28 00:07:37;;;;;;;;;;;;;;;1.93;63.91;93176.34;2052474;70;20552;-75
2023/03/28 00:10:04;;;;;;;;;;;;;;;1.94;64.34;93171.53;2052470;70;20426;-75
2023/03/28 00:12:29;;;;;;;;;;;;;;;1.93;64.99;93175.59;2052340;70;20054;-75
2023/03/28 00:14:56;;;;;;;;;;;;;;;2.00;64.29;93174.91;2065321;69;20054;-73
2023/03/28 00:17:22;;;;;;;;;;;;;;;2.03;64.31;93176.59;2052338;70;20086;-75
2023/03/28 00:19:48;;;;;;;;;;;;;;;2.03;64.34;93180.13;2052344;70;20094;-74
2023/03/28 00:22:14;;;;;;;;;;;;;;;2.04;63.91;93175.31;2052534;70;20074;-75
2023/03/28 00:24:40;;;;;;;;;;;;;;;1.65;65.29;93170.72;2052443;70;20050;-75
2023/03/28 00:27:06;;;;;;;;;;;;;;;1.80;65.87;93168.09;2052496;70;20150;-75
2023/03/28 00:29:32;;;;;;;;;;;;;;;2.01;65.19;93174.34;2052437;70;20589;-74
2023/03/28 00:31:58;;;;;;;;;;;;;;;2.09;64.64;93168.88;2065217;69;20086;-74
2023/03/28 00:34:24;;;;;;;;;;;;;;;1.98;64.17;93158.78;2052467;69;20058;-73
2023/03/28 00:36:52;;;;;;;;;;;;;;;1.91;65.23;93175.41;2052963;70;20384;-75
2023/03/28 00:39:18;;;;;;;;;;;;;;;1.83;64.70;93169.78;2052665;70;20134;-75
2023/03/28 00:41:45;;;;;;;;;;;;;;;1.93;64.19;93172.84;2065462;69;20249;-73
2023/03/28 00:44:29;;;;;;;;;;;;;;;1.85;64.81;93160.91;2052489;70;20119;-74
2023/03/28 00:46:56;;;;;;;;;;;;;;;1.25;68.83;93157.03;2065295;69;20140;-75
2023/03/28 00:49:25;;;;;;;;;;;;;;;1.41;68.42;93161.44;2065337;69;20508;-74
2023/03/28 00:51:58;;;;;;;;;;;;;;;1.63;66.44;93170.53;2065335;69;20141;-76
2023/03/28 00:54:27;;;;;;;;;;;;;;;1.69;66.83;93169.09;2052444;70;20106;-76
2023/03/28 00:56:55;;;;;;;;;;;;;;;1.72;66.54;93172.84;2052140;70;20057;-75
2023/03/28 00:59:23;;;;;;;;;;;;;;;1.70;65.40;93167.09;2062416;69;20039;-76
2023/03/28 01:01:49;;;;;;;;;;;;;;;1.65;65.82;93171.50;2065224;69;20057;-75
2023/03/28 01:04:19;;;;;;;;;;;;;;;1.62;65.90;93166.28;2065262;69;20052;-74
2023/03/28 01:06:48;;;;;;;;;;;;;;;1.27;68.00;93169.06;2064922;69;20150;-74
2023/03/28 01:09:17;;;;;;;;;;;;;;;1.60;66.79;93161.25;2052414;70;20092;-75
2023/03/28 01:11:48;;;;;;;;;;;;;;;1.45;67.74;93161.84;2052554;69;20094;-74
2023/03/28 01:14:16;;;;;;;;;;;;;;;1.66;67.10;93163.91;2065524;69;20110;-74
2023/03/28 01:16:46;;;;;;;;;;;;;;;1.78;66.22;93157.50;2065282;69;20149;-74
2023/03/28 01:19:25;;;;;;;;;;;;;;;1.77;65.98;93156.03;2052781;69;20487;-75
2023/03/28 01:21:52;;;;;;;;;;;;;;;1.85;65.61;93152.59;2052417;70;20559;-74
2023/03/28 01:24:20;;;;;;;;;;;;;;;1.79;65.30;93152.72;2065462;69;20051;-74
2023/03/28 01:26:47;;;;;;;;;;;;;;;1.65;64.93;93152.06;2065478;69;20077;-74
2023/03/28 01:29:23;;;;;;;;;;;;;;;1.52;66.10;93158.41;2052405;70;20146;-73
2023/03/28 01:32:08;;;;;;;;;;;;;;;1.86;65.15;93163.13;2065280;69;20050;-74
2023/03/28 01:35:00;;;;;;;;;;;;;;;1.88;65.64;93168.91;2065376;69;20054;-75
2023/03/28 01:37:31;;;;;;;;;;;;;;;1.94;65.64;93171.53;2065474;69;20054;-73
2023/03/28 01:40:05;;;;;;;;;;;;;;;1.34;67.16;93183.59;2052452;70;20055;-73
2023/03/28 01:42:57;;;;;;;;;;;;;;;1.30;67.03;93177.63;2065357;69;20058;-74
2023/03/28 01:45:22;;;;;;;;;;;;;;;1.62;64.77;93183.66;2065570;69;20061;-74
2023/03/28 01:47:55;;;;;;;;;;;;;;;1.45;63.24;93174.97;2065208;69;20046;-74
2023/03/28 01:50:26;;;;;;;;;;;;;;;1.88;61.08;93182.03;2052646;70;20446;-76
2023/03/28 01:52:57;;;;;;;;;;;;;;;1.90;60.97;93182.25;2065231;69;20109;-73
2023/03/28 01:55:29;;;;;;;;;;;;;;;2.00;59.40;93197.13;2065174;69;20055;-76
2023/03/28 01:58:07;;;;;;;;;;;;;;;2.01;59.62;93185.47;2046069;70;20047;-76
2023/03/28 02:00:54;;;;;;;;;;;;;;;2.10;61.04;93194.59;2062841;69;20145;-74
2023/03/28 02:03:41;;;;;;;;;;;;;;;2.07;61.44;93199.22;2051719;70;20051;-76
2023/03/28 02:06:20;;;;;;;;;;;;;;;2.10;61.16;93195.34;2065194;69;20091;-75
2023/03/28 02:08:48;;;;;;;;;;;;;;;2.22;60.98;93193.03;2064921;69;20495;-73
2023/03/28 02:11:37;;;;;;;;;;;;;;;2.09;60.24;93191.09;2047136;70;20514;-72
2023/03/28 02:14:13;;;;;;;;;;;;;;;2.04;60.54;93189.19;2065189;69;20129;-73
2023/03/28 02:17:03;;;;;;;;;;;;;;;2.20;61.13;93199.16;2055084;69;20132;-74
2023/03/28 02:20:10;;;;;;;;;;;;;;;1.85;62.43;93197.00;2052193;69;20131;-71
2023/03/28 02:23:17;;;;;;;;;;;;;;;2.11;61.71;93204.41;2062388;69;20141;-74
2023/03/28 02:26:09;;;;;;;;;;;;;;;2.09;61.16;93207.75;2052594;69;20078;-73
2023/03/28 02:28:41;;;;;;;;;;;;;;;1.85;62.72;93203.31;2065423;69;20054;-73
2023/03/28 02:31:20;;;;;;;;;;;;;;;1.64;63.41;93210.88;2052510;70;20434;-75
2023/03/28 02:33:46;;;;;;;;;;;;;;;1.57;64.53;93195.66;2065122;69;20411;-74
2023/03/28 02:36:15;;;;;;;;;;;;;;;1.97;63.89;93207.31;2065221;69;20450;-74
2023/03/28 02:38:46;;;;;;;;;;;;;;;1.97;63.12;93195.44;2065160;69;20471;-74
2023/03/28 02:41:18;;;;;;;;;;;;;;;1.40;65.51;93196.03;2065195;69;20065;-74
2023/03/28 02:44:02;;;;;;;;;;;;;;;1.33;66.52;93199.47;2065021;69;20085;-75
2023/03/28 02:46:30;;;;;;;;;;;;;;;1.78;65.90;93207.47;2064684;69;20078;-74
2023/03/28 02:49:10;;;;;;;;;;;;;;;1.61;65.99;93209.19;2064539;69;20580;-74
2023/03/28 02:51:39;;;;;;;;;;;;;;;1.80;65.53;93211.78;2052077;70;20085;-75
2023/03/28 02:54:05;;;;;;;;;;;;;;;1.99;64.92;93212.31;2062309;69;20116;-74
2023/03/28 02:56:38;;;;;;;;;;;;;;;1.42;66.23;93212.91;2065037;69;20047;-72
2023/03/28 02:59:26;;;;;;;;;;;;;;;1.49;65.64;93215.00;2052054;70;20441;-72
2023/03/28 03:01:53;;;;;;;;;;;;;;;1.56;65.83;93213.59;2052106;70;20055;-75
2023/03/28 03:04:20;;;;;;;;;;;;;;;1.38;67.03;93220.81;2052048;69;20085;-75
2023/03/28 03:06:47;;;;;;;;;;;;;;;1.33;68.02;93218.91;2065074;69;20062;-76
2023/03/28 03:09:13;;;;;;;;;;;;;;;1.09;68.41;93224.72;2052056;70;20066;-75
2023/03/28 03:11:41;;;;;;;;;;;;;;;1.65;66.32;93232.56;2064914;69;20482;-76
2023/03/28 03:14:06;;;;;;;;;;;;;;;1.83;65.29;93230.09;2051920;70;20046;-75
2023/03/28 03:16:33;;;;;;;;;;;;;;;1.96;65.33;93230.03;2064889;69;20086;-76
2023/03/28 03:18:58;;;;;;;;;;;;;;;1.38;66.94;93229.13;2064863;69;20149;-76
2023/03/28 03:21:25;;;;;;;;;;;;;;;1.27;68.01;93234.91;2065514;69;20055;-76
2023/03/28 03:23:53;;;;;;;;;;;;;;;1.23;69.04;93232.44;2052513;70;20058;-77
2023/03/28 03:26:19;;;;;;;;;;;;;;;1.76;67.36;93231.53;2052597;69;20461;-76
2023/03/28 03:29:11;;;;;;;;;;;;;;;1.77;66.61;93236.53;2052968;69;20147;-76
2023/03/28 03:31:37;;;;;;;;;;;;;;;1.77;66.64;93238.56;2052440;69;20047;-76
2023/03/28 03:34:32;;;;;;;;;;;;;;;1.75;65.49;93235.59;2065421;69;20054;-76
2023/03/28 03:36:59;;;;;;;;;;;;;;;1.78;65.68;93240.81;2065166;69;20147;-76
2023/03/28 03:39:26;;;;;;;;;;;;;;;1.37;67.32;93241.47;2065378;69;20200;-74
2023/03/28 03:41:52;;;;;;;;;;;;;;;1.46;66.84;93235.47;2065104;69;20158;-76
2023/03/28 03:44:18;;;;;;;;;;;;;;;1.64;66.27;93236.59;2052439;69;20082;-74
2023/03/28 03:46:44;;;;;;;;;;;;;;;1.89;65.37;93247.41;2062662;69;20114;-75
2023/03/28 03:49:09;;;;;;;;;;;;;;;1.99;64.85;93245.63;2065380;69;20714;-77
2023/03/28 03:51:37;;;;;;;;;;;;;;;1.95;65.84;93248.00;2062658;69;20475;-76
2023/03/28 03:54:03;;;;;;;;;;;;;;;1.77;65.77;93242.09;2062270;69;20065;-76
2023/03/28 03:56:36;;;;;;;;;;;;;;;1.86;65.82;93254.75;2052294;70;20450;-76
2023/03/28 03:59:02;;;;;;;;;;;;;;;1.56;67.50;93246.13;2065477;69;20051;-76
2023/03/28 04:01:38;;;;;;;;;;;;;;;1.86;66.60;93249.22;2064365;69;20498;-77
2023/03/28 04:04:27;;;;;;;;;;;;;;;1.35;67.77;93251.66;2053407;69;20136;-76
2023/03/28 04:07:15;;;;;;;;;;;;;;;1.55;67.37;93258.50;2050923;69;20070;-77
2023/03/28 04:09:41;;;;;;;;;;;;;;;1.86;66.22;93254.03;2065111;69;20059;-75
2023/03/28 04:12:10;;;;;;;;;;;;;;;1.87;66.02;93256.25;2052374;70;20058;-75
2023/03/28 04:14:56;;;;;;;;;;;;;;;1.83;66.49;93263.41;2065401;69;20070;-76
2023/03/28 04:17:43;;;;;;;;;;;;;;;1.91;66.01;93267.03;2056646;69;20069;-75
2023/03/28 04:20:19;;;;;;;;;;;;;;;1.92;65.94;93271.28;2065423;69;20050;-76
2023/03/28 04:23:07;;;;;;;;;;;;;;;1.95;65.62;93265.41;2065865;69;20159;-73
2023/03/28 04:25:34;;;;;;;;;;;;;;;1.93;65.00;93267.97;2065661;69;20479;-75
2023/03/28 04:28:24;;;;;;;;;;;;;;;1.87;65.82;93264.56;2061411;69;20057;-75
2023/03/28 04:31:00;;;;;;;;;;;;;;;1.78;65.61;93265.78;2058264;69;20050;-75
2023/03/28 04:33:27;;;;;;;;;;;;;;;1.65;66.67;93274.19;2061016;69;20499;-75
2023/03/28 04:35:58;;;;;;;;;;;;;;;1.72;66.21;93267.22;2058254;69;20484;-75
2023/03/28 04:38:25;;;;;;;;;;;;;;;1.74;66.13;93259.84;2055685;69;20084;-75
2023/03/28 04:41:12;;;;;;;;;;;;;;;1.57;66.60;93264.28;2060637;69;20120;-74
2023/03/28 04:44:00;;;;;;;;;;;;;;;1.62;66.83;93274.50;2061091;69;20060;-76
2023/03/28 04:46:33;;;;;;;;;;;;;;;1.54;67.54;93271.66;2060926;69;20054;-74
2023/03/28 04:49:06;;;;;;;;;;;;;;;1.20;69.54;93274.41;2037985;69;20579;-74
2023/03/28 04:51:32;;;;;;;;;;;;;;;1.24;69.06;93283.16;2038472;70;20082;-75
2023/03/28 04:53:59;;;;;;;;;;;;;;;1.66;67.79;93281.22;2054558;69;20447;-74
2023/03/28 04:56:44;;;;;;;;;;;;;;;1.22;69.70;93286.44;2038412;70;20047;-74
2023/03/28 04:59:14;;;;;;;;;;;;;;;1.46;69.04;93293.00;2060724;69;20664;-75
2023/03/28 05:01:40;;;;;;;;;;;;;;;1.66;68.58;93297.88;2045516;69;20084;-76
2023/03/28 05:04:26;;;;;;;;;;;;;;;1.81;67.76;93288.22;2065352;69;20189;-74
2023/03/28 05:07:03;;;;;;;;;;;;;;;1.93;67.08;93297.78;2065110;69;20141;-74
2023/03/28 05:09:29;;;;;;;;;;;;;;;1.96;67.32;93299.47;2048145;69;20489;-75
2023/03/28 05:11:55;;;;;;;;;;;;;;;1.95;67.15;93309.81;2061638;69;20049;-75
2023/03/28 05:14:20;;;;;;;;;;;;;;;2.06;66.20;93308.81;2048399;69;20498;-75
2023/03/28 05:16:49;;;;;;;;;;;;;;;1.95;66.21;93307.06;2048349;69;20054;-75
2023/03/28 05:19:33;;;;;;;;;;;;;;;1.30;68.68;93310.78;2065041;69;20123;-75
2023/03/28 05:22:24;;;;;;;;;;;;;;;1.13;69.81;93305.56;2065120;69;20065;-75
2023/03/28 05:24:51;;;;;;;;;;;;;;;1.53;68.45;93314.56;2048357;69;20089;-73
2023/03/28 05:27:19;;;;;;;;;;;;;;;1.46;68.67;93321.50;2048281;69;20136;-74
2023/03/28 05:29:46;;;;;;;;;;;;;;;1.70;67.93;93325.31;2051044;69;20061;-73
2023/03/28 05:32:11;;;;;;;;;;;;;;;1.94;66.83;93322.22;2048260;69;20115;-74
2023/03/28 05:34:38;;;;;;;;;;;;;;;1.95;66.71;93323.72;2048326;69;20059;-73
2023/03/28 05:37:04;;;;;;;;;;;;;;;1.97;66.58;93326.72;2048240;69;20069;-75
2023/03/28 05:39:42;;;;;;;;;;;;;;;1.92;67.07;93324.78;2048314;69;20481;-76
2023/03/28 05:42:08;;;;;;;;;;;;;;;1.87;67.08;93331.22;2064116;69;20485;-77
2023/03/28 05:44:35;;;;;;;;;;;;;;;1.98;66.60;93336.53;2048803;69;20169;-77
2023/03/28 05:47:13;;;;;;;;;;;;;;;2.02;66.65;93330.66;2063590;69;20128;-77
2023/03/28 05:49:39;;;;;;;;;;;;;;;2.02;66.57;93334.16;2052173;70;20058;-76
2023/03/28 05:52:21;;;;;;;;;;;;;;;2.06;66.46;93336.59;2053135;70;20051;-77
2023/03/28 05:54:47;;;;;;;;;;;;;;;2.11;66.42;93346.84;2065547;69;20058;-76
2023/03/28 05:57:16;;;;;;;;;;;;;;;2.08;66.34;93347.19;2065385;69;20058;-76
2023/03/28 05:59:42;;;;;;;;;;;;;;;2.17;65.78;93352.28;2052191;69;20047;-76
2023/03/28 06:02:14;;;;;;;;;;;;;;;2.15;65.97;93352.06;2052488;70;20111;-76
2023/03/28 06:04:41;;;;;;;;;;;;;;;2.27;65.21;93362.38;2065260;69;20059;-75
2023/03/28 06:07:10;;;;;;;;;;;;;;;2.22;65.68;93362.50;2066031;69;20058;-77
2023/03/28 06:09:37;;;;;;;;;;;;;;;2.26;65.71;93363.66;2065578;69;20054;-76
2023/03/28 06:12:04;;;;;;;;;;;;;;;2.05;66.27;93368.44;2065301;69;20108;-75
2023/03/28 06:14:30;;;;;;;;;;;;;;;1.92;67.20;93369.22;2065605;69;20101;-75
2023/03/28 06:17:00;;;;;;;;;;;;;;;1.76;68.79;93379.41;2066264;69;20051;-77
2023/03/28 06:19:33;;;;;;;;;;;;;;;1.63;69.00;93379.44;2066318;69;20050;-78
2023/03/28 06:22:01;;;;;;;;;;;;;;;1.91;68.12;93383.66;2065499;69;20057;-78
2023/03/28 06:24:29;;;;;;;;;;;;;;;1.86;68.18;93382.47;2065927;69;20451;-76
2023/03/28 06:26:55;;;;;;;;;;;;;;;2.12;67.23;93381.66;2063103;69;20486;-75
2023/03/28 06:29:23;;;;;;;;;;;;;;;1.81;68.13;93382.59;2065886;69;20097;-77
2023/03/28 06:31:58;;;;;;;;;;;;;;;2.00;67.54;93381.16;2052706;69;20050;-74
2023/03/28 06:34:24;;;;;;;;;;;;;;;2.05;67.15;93385.09;2051566;70;20050;-75
2023/03/28 06:36:55;;;;;;;;;;;;;;;2.13;66.81;93388.72;2064916;69;20095;-76
2023/03/28 06:39:25;;;;;;;;;;;;;;;1.75;67.83;93391.81;2064811;69;20398;-76
2023/03/28 06:42:01;;;;;;;;;;;;;;;2.22;66.81;93384.72;2064999;69;20511;-76
2023/03/28 06:44:35;;;;;;;;;;;;;;;2.29;66.53;93390.38;2065124;69;20059;-77
2023/03/28 06:47:16;;;;;;;;;;;;;;;2.33;66.13;93384.47;2064907;69;20043;-77
2023/03/28 06:49:41;;;;;;;;;;;;;;;2.59;65.01;93394.72;2065072;69;20138;-74
2023/03/28 06:52:32;;;;;;;;;;;;;;;2.63;63.99;93402.72;2065187;69;20081;-77
2023/03/28 06:55:00;;;;;;;;;;;;;;;2.75;64.70;93403.94;2062260;69;20438;-74
2023/03/28 06:57:25;;;;;;;;;;;;;;;2.91;64.49;93410.38;2065579;69;20137;-77
2023/03/28 06:59:59;;;;;;;;;;;;;;;2.99;64.27;93411.19;2062887;69;20050;-77
2023/03/28 07:02:40;;;;;;;;;;;;;;;3.11;63.93;93419.97;2065515;69;20062;-77
2023/03/28 07:05:08;;;;;;;;;;;;;;;2.95;63.23;93414.31;2065602;69;20172;-76
2023/03/28 07:07:33;;;;;;;;;;;;;;;2.89;63.58;93418.53;2046343;70;20192;-77
2023/03/28 07:09:59;;;;;;;;;;;;;;;2.62;63.21;93424.22;2065490;69;20093;-77
2023/03/28 07:12:25;;;;;;;;;;;;;;;2.96;62.42;93432.47;2065732;69;20070;-78
2023/03/28 07:14:50;;;;;;;;;;;;;;;3.05;61.33;93429.22;2065626;69;20080;-77
2023/03/28 07:17:15;;;;;;;;;;;;;;;3.23;61.89;93426.75;2052711;70;20074;-77
2023/03/28 07:19:41;;;;;;;;;;;;;;;3.44;61.12;93432.28;2052636;69;20043;-78
2023/03/28 07:22:07;;;;;;;;;;;;;;;3.46;61.26;93438.03;2065678;69;20046;-76
2023/03/28 07:24:35;;;;;;;;;;;;;;;3.58;60.74;93447.59;2062935;69;20186;-76
2023/03/28 07:27:04;;;;;;;;;;;;;;;3.37;61.10;93444.84;2068956;69;20051;-74
2023/03/28 07:29:29;;;;;;;;;;;;;;;3.71;60.97;93447.50;2070177;69;20053;-74
2023/03/28 07:31:55;;;;;;;;;;;;;;;3.78;60.45;93448.81;2057456;70;20092;-77
2023/03/28 07:34:20;;;;;;;;;;;;;;;3.70;59.58;93451.56;2070552;69;20046;-77
2023/03/28 07:36:46;;;;;;;;;;;;;;;3.44;59.86;93460.13;2070090;69;20116;-76
2023/03/28 07:39:18;;;;;;;;;;;;;;;3.51;59.58;93457.38;2067175;69;20058;-75
2023/03/28 07:41:43;;;;;;;;;;;;;;;3.01;60.87;93462.19;2065567;69;20050;-74
2023/03/28 07:44:09;;;;;;;;;;;;;;;3.02;60.25;93465.72;2065706;69;20047;-76
2023/03/28 07:46:36;;;;;;;;;;;;;;;3.01;60.27;93469.78;2053052;70;20144;-75
2023/03/28 07:49:03;;;;;;;;;;;;;;;3.03;60.68;93472.78;2069115;69;20052;-76
2023/03/28 07:51:30;;;;;;;;;;;;;;;3.54;59.47;93478.56;2070123;69;20099;-74
2023/03/28 07:53:58;;;;;;;;;;;;;;;3.41;58.69;93473.09;2068250;69;20052;-75
2023/03/28 07:56:25;;;;;;;;;;;;;;;3.67;59.87;93468.63;2068335;69;20061;-76
2023/03/28 07:59:20;;;;;;;;;;;;;;;3.68;60.12;93472.91;2061907;69;20060;-77
2023/03/28 08:01:49;;;;;;;;;;;;;;;4.32;59.69;93477.69;2068956;69;20111;-75
2023/03/28 08:04:17;;;;;;;;;;;;;;;4.68;58.78;93474.09;2069046;69;20136;-75
2023/03/28 08:07:06;;;;;;;;;;;;;;;4.85;59.61;93465.94;2067266;69;20092;-76
2023/03/28 08:09:33;;;;;;;;;;;;;;;5.15;56.11;93475.66;2068265;69;20145;-74
2023/03/28 08:12:33;;;;;;;;;;;;;;;5.94;56.68;93474.50;2066751;69;20045;-75
2023/03/28 08:14:59;;;;;;;;;;;;;;;6.46;53.75;93472.13;2068334;69;20047;-73
2023/03/28 08:17:26;;;;;;;;;;;;;;;6.59;53.49;93471.13;2068001;69;20120;-74
2023/03/28 08:19:52;;;;;;;;;;;;;;;6.93;51.94;93469.84;2068171;69;20485;-73
2023/03/28 08:22:20;;;;;;;;;;;;;;;7.52;50.98;93469.25;2068638;69;20084;-74
2023/03/28 08:24:56;;;;;;;;;;;;;;;7.72;48.01;93473.72;2068136;69;20077;-76
2023/03/28 08:27:23;;;;;;;;;;;;;;;6.67;45.19;93471.09;2068652;69;20196;-74
2023/03/28 08:29:55;;;;;;;;;;;;;;;6.98;45.02;93482.88;2067797;69;20064;-74
2023/03/28 08:32:21;;;;;;;;;;;;;;;6.80;46.90;93479.22;2068286;69;20409;-75
2023/03/28 08:34:47;;;;;;;;;;;;;;;6.26;46.08;93478.72;2065221;69;20061;-75
2023/03/28 08:37:16;;;;;;;;;;;;;;;6.59;44.74;93474.66;2065359;69;20477;-75
2023/03/28 08:39:46;;;;;;;;;;;;;;;5.90;44.72;93482.50;2068669;69;20123;-76
2023/03/28 08:42:15;;;;;;;;;;;;;;;6.57;42.52;93482.88;2068070;69;20119;-77
2023/03/28 08:44:46;;;;;;;;;;;;;;;6.86;42.85;93476.97;2068569;69;20080;-79
2023/03/28 08:47:18;;;;;;;;;;;;;;;7.72;43.52;93476.53;2066304;69;20057;-77
2023/03/28 08:49:55;;;;;;;;;;;;;;;7.04;41.93;93469.38;2062558;69;20090;-76
2023/03/28 08:52:21;;;;;;;;;;;;;;;8.10;41.47;93476.16;2065182;69;20055;-77
2023/03/28 08:54:54;;;;;;;;;;;;;;;7.93;41.54;93478.97;2065355;69;20192;-77
2023/03/28 08:57:22;;;;;;;;;;;;;;;8.07;41.36;93473.78;2065301;69;20051;-74
2023/03/28 08:59:52;;;;;;;;;;;;;;;8.18;40.07;93470.47;2062553;69;20201;-74
2023/03/28 09:02:19;;;;;;;;;;;;;;;8.36;39.09;93466.38;2062435;69;20063;-74
2023/03/28 09:04:46;;;;;;;;;;;;;;;8.12;39.39;93473.53;2065115;69;20062;-77
2023/03/28 09:07:34;;;;;;;;;;;;;;;9.69;37.96;93479.56;2064855;69;20051;-75
2023/03/28 09:10:02;;;;;;;;;;;;;;;8.63;36.33;93469.25;2052502;70;20479;-74
2023/03/28 09:12:58;;;;;;;;;;;;;;;8.87;38.32;93458.47;2065416;69;20126;-76
2023/03/28 09:15:24;;;;;;;;;;;;;;;8.44;37.50;93471.19;2062520;69;20403;-76
2023/03/28 09:17:54;;;;;;;;;;;;;;;9.11;37.19;93468.06;2052116;70;20543;-77
2023/03/28 09:20:39;;;;;;;;;;;;;;;9.93;35.80;93460.97;2065362;69;20488;-78
2023/03/28 09:23:15;;;;;;;;;;;;;;;9.44;36.89;93465.72;2051872;70;20085;-76
2023/03/28 09:26:13;;;;;;;;;;;;;;;11.24;35.73;93464.81;2053118;69;20051;-78
2023/03/28 09:28:50;;;;;;;;;;;;;;;10.78;34.52;93460.16;2065008;69;20051;-79
2023/03/28 09:31:18;;;;;;;;;;;;;;;10.73;32.39;93464.03;2052362;69;20450;-74
2023/03/28 09:33:46;;;;;;;;;;;;;;;10.69;34.18;93458.84;2065318;69;20511;-76
2023/03/28 09:36:21;;;;;;;;;;;;;;;12.28;31.79;93457.81;2052309;69;20047;-74
2023/03/28 09:38:51;;;;;;;;;;;;;;;12.96;33.33;93458.00;2065365;69;20074;-76
2023/03/28 09:41:20;;;;;;;;;;;;;;;11.41;29.06;93464.63;2065163;69;20055;-75
2023/03/28 09:44:12;;;;;;;;;;;;;;;12.57;29.18;93460.44;2052201;70;20494;-75
2023/03/28 09:46:58;;;;;;;;;;;;;;;11.78;26.66;93453.03;2052209;70;20120;-75
2023/03/28 09:49:37;;;;;;;;;;;;;;;13.09;28.36;93460.25;2048315;69;20076;-76
2023/03/28 09:52:13;;;;;;;;;;;;;;;13.87;26.87;93456.59;2052185;69;20054;-75
2023/03/28 09:54:48;;;;;;;;;;;;;;;14.64;25.16;93464.00;2064975;69;20056;-78
2023/03/28 09:57:14;;;;;;;;;;;;;;;15.19;25.20;93463.56;2049044;69;20046;-79
2023/03/28 10:00:19;;;;;;;;;;;;;;;15.85;26.55;93456.50;2052593;69;20057;-77
2023/03/28 10:02:51;;;;;;;;;;;;;;;16.09;23.56;93462.75;2048461;69;20056;-78
2023/03/28 10:05:29;;;;;;;;;;;;;;;15.86;22.70;93461.56;2048300;69;20489;-80
2023/03/28 10:08:02;;;;;;;;;;;;;;;14.80;22.46;93467.06;2048110;69;20053;-78
2023/03/28 10:10:41;;;;;;;;;;;;;;;15.45;21.96;93467.84;2051130;69;20072;-77
2023/03/28 10:13:14;;;;;;;;;;;;;;;15.73;22.51;93473.63;2061690;69;20141;-76
2023/03/28 10:15:45;;;;;;;;;;;;;;;16.95;21.54;93473.53;2050999;69;20545;-77
2023/03/28 10:18:30;;;;;;;;;;;;;;;15.70;21.22;93472.03;2065009;69;20527;-78
2023/03/28 10:21:30;;;;;;;;;;;;;;;15.82;22.13;93469.13;2062818;69;20092;-76
2023/03/28 10:24:06;;;;;;;;;;;;;;;18.26;20.55;93477.56;2051134;69;20470;-77
2023/03/28 10:26:33;;;;;;;;;;;;;;;18.22;21.08;93471.69;2059711;69;20054;-78
2023/03/28 10:29:03;;;;;;;;;;;;;;;17.73;22.48;93466.56;2050989;69;20053;-78
2023/03/28 10:31:30;;;;;;;;;;;;;;;19.44;20.54;93476.88;2051944;69;20481;-77
2023/03/28 10:34:24;;;;;;;;;;;;;;;19.98;18.70;93477.59;2052141;69;20434;-77
2023/03/28 10:36:55;;;;;;;;;;;;;;;17.07;21.00;93470.56;2065911;69;20171;-76
2023/03/28 10:39:27;;;;;;;;;;;;;;;19.14;18.93;93484.91;2049561;69;20057;-78
2023/03/28 10:42:11;;;;;;;;;;;;;;;20.71;17.79;93478.81;2065680;69;20500;-78
2023/03/28 10:45:01;;;;;;;;;;;;;;;18.21;19.84;93465.25;2064033;69;20065;-77
2023/03/28 10:47:30;;;;;;;;;;;;;;;20.92;17.60;93469.56;2053268;69;20481;-77
2023/03/28 10:49:59;;;;;;;;;;;;;;;21.78;16.27;93476.00;2068185;69;20144;-76
2023/03/28 10:52:40;;;;;;;;;;;;;;;21.91;16.38;93474.25;2068206;69;20254;-75
2023/03/28 10:55:22;;;;;;;;;;;;;;;23.01;14.94;93468.09;2068315;69;20151;-76
2023/03/28 10:58:35;;;;;;;;;;;;;;;24.93;15.04;93466.78;2068256;69;20106;-76
2023/03/28 11:01:18;;;;;;;;;;;;;;;26.72;14.61;93458.16;2065728;69;20169;-76
2023/03/28 11:04:05;;;;;;;;;;;;;;;25.17;13.06;93461.50;2067893;69;20077;-75
2023/03/28 11:06:45;;;;;;;;;;;;;;;20.22;16.29;93457.75;2068327;69;20107;-77
2023/03/28 11:09:24;;;;;;;;;;;;;;;23.68;13.44;93452.56;2068572;69;20045;-76
2023/03/28 11:12:37;;;;;;;;;;;;;;;27.84;11.45;93461.47;2059035;69;20052;-77
2023/03/28 11:15:37;;;;;;;;;;;;;;;25.52;13.75;93453.44;2065418;69;20465;-77
2023/03/28 11:18:16;;;;;;;;;;;;;;;26.21;13.92;93448.78;2054216;70;20042;-76
2023/03/28 11:20:42;;;;;;;;;;;;;;;29.28;12.64;93447.09;2051434;70;20102;-78
2023/03/28 11:23:07;;;;;;;;;;;;;;;26.31;13.99;93442.44;2051409;70;20516;-78
2023/03/28 11:26:01;;;;;;;;;;;;;;;30.35;11.45;93451.50;2051092;70;20061;-76
2023/03/28 11:29:05;;;;;;;;;;;;;;;30.69;10.47;93440.50;2054366;70;20489;-78
2023/03/28 11:31:37;;;;;;;;;;;;;;;31.52;10.46;93445.25;2051307;70;20129;-79
2023/03/28 11:34:05;;;;;;;;;;;;;;;35.05;10.13;93447.31;2054096;70;20066;-75
2023/03/28 11:36:31;;;;;;;;;;;;;;;30.59;9.44;93442.00;2051562;70;20147;-74
2023/03/28 11:39:16;;;;;;;;;;;;;;;34.10;9.87;93432.22;2054412;70;20067;-75
2023/03/28 11:41:43;;;;;;;;;;;;;;;34.63;9.31;93432.00;2055504;70;20051;-79
2023/03/28 11:44:31;;;;;;;;;;;;;;;31.90;10.28;93426.09;2055061;69;20058;-75
2023/03/28 11:46:56;;;;;;;;;;;;;;;30.10;9.65;93427.56;2051248;70;20121;-75
2023/03/28 11:49:23;;;;;;;;;;;;;;;33.46;8.55;93432.44;2028951;70;20609;-76
2023/03/28 11:51:55;;;;;;;;;;;;;;;30.53;9.23;93430.41;2029059;70;20152;-75
2023/03/28 11:54:26;;;;;;;;;;;;;;;25.64;11.38;93415.44;2045114;69;20087;-76
2023/03/28 11:56:55;;;;;;;;;;;;;;;30.78;9.51;93431.06;2061636;69;20053;-73
2023/03/28 11:59:45;;;;;;;;;;;;;;;34.61;9.90;93426.19;2051246;69;20555;-75
2023/03/28 12:02:21;;;;;;;;;;;;;;;34.84;9.82;93419.91;2051163;69;20149;-74
2023/03/28 12:05:14;;;;;;;;;;;;;;;35.28;8.92;93414.63;2051101;69;20462;-73
2023/03/28 12:07:44;;;;;;;;;;;;;;;29.76;10.43;93399.28;2048467;69;20073;-75
2023/03/28 12:10:35;;;;;;;;;;;;;;;29.25;9.36;93404.31;2065145;69;20555;-75
2023/03/28 12:13:22;;;;;;;;;;;;;;;30.45;9.57;93400.66;2061625;69;20490;-75
2023/03/28 12:16:03;;;;;;;;;;;;;;;30.32;9.51;93402.84;2061597;69;20042;-73
2023/03/28 12:18:28;;;;;;;;;;;;;;;28.50;10.09;93387.38;2045475;69;20081;-75
2023/03/28 12:20:59;;;;;;;;;;;;;;;27.99;10.60;93382.00;2048606;69;20430;-74
2023/03/28 12:23:39;;;;;;;;;;;;;;;30.14;9.85;93383.28;2065115;69;20058;-74
2023/03/28 12:27:06;;;;;;;;;;;;;;;31.22;8.98;93379.25;2041295;69;20051;-76
2023/03/28 12:29:47;;;;;;;;;;;;;;;32.77;8.20;93378.59;2025205;70;20053;-74
2023/03/28 12:32:39;;;;;;;;;;;;;;;32.91;9.13;93374.81;2025120;70;20045;-74
2023/03/28 12:35:23;;;;;;;;;;;;;;;32.04;8.23;93373.56;2025279;70;20060;-74
2023/03/28 12:38:04;;;;;;;;;;;;;;;31.55;8.36;93371.03;2025194;70;20116;-73
2023/03/28 12:40:52;;;;;;;;;;;;;;;30.93;9.68;93367.78;2027842;70;20433;-73
2023/03/28 12:43:27;;;;;;;;;;;;;;;32.61;8.83;93364.94;2025042;70;20095;-73
2023/03/28 12:45:56;;;;;;;;;;;;;;;31.39;9.48;93368.97;2025106;70;20068;-74
2023/03/28 12:48:30;;;;;;;;;;;;;;;31.14;8.48;93372.00;2040414;70;20093;-74
2023/03/28 12:51:04;;;;;;;;;;;;;;;33.25;8.27;93367.78;2049661;70;20082;-74
2023/03/28 12:53:30;;;;;;;;;;;;;;;32.60;7.75;93368.63;2047043;70;20158;-76
2023/03/28 12:55:56;;;;;;;;;;;;;;;34.88;7.53;93367.19;2050151;70;20051;-77
2023/03/28 12:58:34;;;;;;;;;;;;;;;29.94;9.24;93371.69;2053435;69;20057;-75
2023/03/28 13:01:03;;;;;;;;;;;;;;;29.61;9.38;93371.72;2057188;69;20053;-73
2023/03/28 13:03:37;;;;;;;;;;;;;;;27.99;10.14;93366.81;2057202;69;20184;-73
2023/03/28 13:06:21;;;;;;;;;;;;;;;29.23;9.23;93366.59;2060577;69;20438;-74
2023/03/28 13:09:04;;;;;;;;;;;;;;;34.66;8.73;93377.16;2067939;69;20444;-73
2023/03/28 13:11:48;;;;;;;;;;;;;;;31.02;8.69;93365.53;2067363;69;20041;-72
2023/03/28 13:14:22;;;;;;;;;;;;;;;34.67;8.03;93363.25;2068333;69;20103;-74
2023/03/28 13:16:56;;;;;;;;;;;;;;;31.84;7.99;93354.06;2068204;69;20045;-73
2023/03/28 13:19:36;;;;;;;;;;;;;;;30.13;9.47;93356.44;2068410;69;20148;-74
2023/03/28 13:22:02;;;;;;;;;;;;;;;33.66;8.37;93360.63;2068403;69;20143;-74
2023/03/28 13:24:32;;;;;;;;;;;;;;;35.25;7.49;93358.38;2068322;69;20053;-76
2023/03/28 13:27:11;;;;;;;;;;;;;;;30.12;8.26;93343.34;2068040;69;20079;-75
2023/03/28 13:29:47;;;;;;;;;;;;;;;32.55;7.58;93347.53;2067853;69;20137;-75